sensor_id;sensor_type;location;lat;lon;timestamp;P1;durP1;ratioP1;P2;durP2;ratioP2
49876;SDS011;35771;48.978;9.294;2022-09-03T00:00:53;1.90;;;0.93;;
49876;SDS011;35771;48.978;9.294;2022-09-03T00:03:23;1.75;;;0.93;;
49876;SDS011;35771;48.978;9.294;2022-09-03T00:06:06;3.47;;;0.80;;
49876;SDS011;35771;48.978;9.294;2022-09-03T00:08:38;1.48;;;0.90;;
49876;SDS011;35771;48.978;9.294;2022-09-03T00:11:10;1.73;;;0.73;;
49876;SDS011;35771;48.978;9.294;2022-09-03T00:13:42;1.60;;;0.85;;
49876;SDS011;35771;48.978;9.294;2022-09-03T00:16:17;2.60;;;0.90;;
49876;SDS011;35771;48.978;9.294;2022-09-03T00:18:48;1.63;;;0.80;;
49876;SDS011;35771;48.978;9.294;2022-09-03T00:21:21;1.98;;;0.80;;
49876;SDS011;35771;48.978;9.294;2022-09-03T00:23:51;4.55;;;0.80;;
49876;SDS011;35771;48.978;9.294;2022-09-03T00:26:21;1.70;;;0.82;;
49876;SDS011;35771;48.978;9.294;2022-09-03T00:28:54;3.20;;;1.00;;
49876;SDS011;35771;48.978;9.294;2022-09-03T00:31:28;1.63;;;0.93;;
49876;SDS011;35771;48.978;9.294;2022-09-03T00:33:59;5.05;;;1.15;;
49876;SDS011;35771;48.978;9.294;2022-09-03T00:36:31;1.75;;;0.80;;
49876;SDS011;35771;48.978;9.294;2022-09-03T00:39:06;4.22;;;1.13;;
49876;SDS011;35771;48.978;9.294;2022-09-03T00:41:36;1.30;;;0.83;;
49876;SDS011;35771;48.978;9.294;2022-09-03T00:44:09;2.15;;;0.90;;
49876;SDS011;35771;48.978;9.294;2022-09-03T00:46:52;2.17;;;0.80;;
49876;SDS011;35771;48.978;9.294;2022-09-03T00:49:27;2.03;;;1.00;;
49876;SDS011;35771;48.978;9.294;2022-09-03T00:52:05;1.42;;;0.70;;
49876;SDS011;35771;48.978;9.294;2022-09-03T00:54:40;3.97;;;0.98;;
49876;SDS011;35771;48.978;9.294;2022-09-03T00:57:18;2.10;;;0.63;;
49876;SDS011;35771;48.978;9.294;2022-09-03T00:59:56;2.25;;;0.80;;
49876;SDS011;35771;48.978;9.294;2022-09-03T01:02:33;3.53;;;0.95;;
49876;SDS011;35771;48.978;9.294;2022-09-03T01:05:28;2.03;;;1.00;;
49876;SDS011;35771;48.978;9.294;2022-09-03T01:08:09;1.05;;;0.85;;
49876;SDS011;35771;48.978;9.294;2022-09-03T01:10:47;4.87;;;1.33;;
49876;SDS011;35771;48.978;9.294;2022-09-03T01:13:22;6.43;;;1.05;;
49876;SDS011;35771;48.978;9.294;2022-09-03T01:16:00;0.90;;;0.70;;
49876;SDS011;35771;48.978;9.294;2022-09-03T01:18:38;1.63;;;0.90;;
49876;SDS011;35771;48.978;9.294;2022-09-03T01:21:23;0.98;;;0.70;;
49876;SDS011;35771;48.978;9.294;2022-09-03T01:24:15;0.60;;;0.60;;
49876;SDS011;35771;48.978;9.294;2022-09-03T01:26:57;1.35;;;0.80;;
49876;SDS011;35771;48.978;9.294;2022-09-03T01:29:38;3.35;;;1.05;;
49876;SDS011;35771;48.978;9.294;2022-09-03T01:32:14;1.48;;;0.90;;
49876;SDS011;35771;48.978;9.294;2022-09-03T01:34:49;3.25;;;0.80;;
49876;SDS011;35771;48.978;9.294;2022-09-03T01:37:26;2.17;;;1.13;;
49876;SDS011;35771;48.978;9.294;2022-09-03T01:40:02;3.50;;;0.95;;
49876;SDS011;35771;48.978;9.294;2022-09-03T01:42:41;1.23;;;0.90;;
49876;SDS011;35771;48.978;9.294;2022-09-03T01:45:18;1.15;;;0.93;;
49876;SDS011;35771;48.978;9.294;2022-09-03T01:48:08;0.93;;;0.75;;
49876;SDS011;35771;48.978;9.294;2022-09-03T01:50:44;1.33;;;0.85;;
49876;SDS011;35771;48.978;9.294;2022-09-03T01:53:18;1.73;;;0.90;;
49876;SDS011;35771;48.978;9.294;2022-09-03T01:56:01;1.95;;;0.70;;
49876;SDS011;35771;48.978;9.294;2022-09-03T01:58:41;6.60;;;1.20;;
49876;SDS011;35771;48.978;9.294;2022-09-03T02:01:15;1.00;;;0.93;;
49876;SDS011;35771;48.978;9.294;2022-09-03T02:03:52;3.63;;;1.10;;
49876;SDS011;35771;48.978;9.294;2022-09-03T02:06:23;2.55;;;1.13;;
49876;SDS011;35771;48.978;9.294;2022-09-03T02:08:50;1.65;;;0.90;;
49876;SDS011;35771;48.978;9.294;2022-09-03T02:11:17;1.23;;;0.90;;
49876;SDS011;35771;48.978;9.294;2022-09-03T02:13:44;3.58;;;1.20;;
49876;SDS011;35771;48.978;9.294;2022-09-03T02:16:18;2.13;;;0.82;;
49876;SDS011;35771;48.978;9.294;2022-09-03T02:18:49;2.65;;;0.80;;
49876;SDS011;35771;48.978;9.294;2022-09-03T02:21:20;2.17;;;1.15;;
49876;SDS011;35771;48.978;9.294;2022-09-03T02:23:48;1.00;;;0.70;;
49876;SDS011;35771;48.978;9.294;2022-09-03T02:26:17;1.90;;;1.17;;
49876;SDS011;35771;48.978;9.294;2022-09-03T02:28:47;1.50;;;0.95;;
49876;SDS011;35771;48.978;9.294;2022-09-03T02:31:15;1.40;;;0.98;;
49876;SDS011;35771;48.978;9.294;2022-09-03T02:33:44;1.55;;;0.73;;
49876;SDS011;35771;48.978;9.294;2022-09-03T02:36:13;2.83;;;0.80;;
49876;SDS011;35771;48.978;9.294;2022-09-03T02:38:42;1.80;;;1.10;;
49876;SDS011;35771;48.978;9.294;2022-09-03T02:41:10;1.50;;;0.85;;
49876;SDS011;35771;48.978;9.294;2022-09-03T02:43:40;2.22;;;1.10;;
49876;SDS011;35771;48.978;9.294;2022-09-03T02:46:13;3.63;;;0.90;;
49876;SDS011;35771;48.978;9.294;2022-09-03T02:48:47;1.05;;;0.73;;
49876;SDS011;35771;48.978;9.294;2022-09-03T02:51:14;1.45;;;0.73;;
49876;SDS011;35771;48.978;9.294;2022-09-03T02:53:41;0.93;;;0.93;;
49876;SDS011;35771;48.978;9.294;2022-09-03T02:56:08;1.48;;;0.90;;
49876;SDS011;35771;48.978;9.294;2022-09-03T02:58:35;2.83;;;1.10;;
49876;SDS011;35771;48.978;9.294;2022-09-03T03:01:04;1.42;;;0.95;;
49876;SDS011;35771;48.978;9.294;2022-09-03T03:03:33;1.33;;;0.90;;
49876;SDS011;35771;48.978;9.294;2022-09-03T03:06:01;1.30;;;0.90;;
49876;SDS011;35771;48.978;9.294;2022-09-03T03:08:31;1.25;;;0.98;;
49876;SDS011;35771;48.978;9.294;2022-09-03T03:10:59;1.65;;;0.75;;
49876;SDS011;35771;48.978;9.294;2022-09-03T03:13:26;1.60;;;0.90;;
49876;SDS011;35771;48.978;9.294;2022-09-03T03:15:55;1.85;;;0.98;;
49876;SDS011;35771;48.978;9.294;2022-09-03T03:18:22;1.42;;;0.88;;
49876;SDS011;35771;48.978;9.294;2022-09-03T03:20:50;3.50;;;1.17;;
49876;SDS011;35771;48.978;9.294;2022-09-03T03:23:17;1.02;;;0.73;;
49876;SDS011;35771;48.978;9.294;2022-09-03T03:25:44;2.92;;;0.73;;
49876;SDS011;35771;48.978;9.294;2022-09-03T03:28:11;2.72;;;0.88;;
49876;SDS011;35771;48.978;9.294;2022-09-03T03:30:39;1.20;;;1.10;;
49876;SDS011;35771;48.978;9.294;2022-09-03T03:33:07;2.00;;;0.80;;
49876;SDS011;35771;48.978;9.294;2022-09-03T03:35:34;5.53;;;0.90;;
49876;SDS011;35771;48.978;9.294;2022-09-03T03:38:02;2.60;;;1.00;;
49876;SDS011;35771;48.978;9.294;2022-09-03T03:40:29;2.78;;;1.02;;
49876;SDS011;35771;48.978;9.294;2022-09-03T03:42:56;3.13;;;1.08;;
49876;SDS011;35771;48.978;9.294;2022-09-03T03:45:23;1.95;;;0.88;;
49876;SDS011;35771;48.978;9.294;2022-09-03T03:47:49;2.72;;;1.08;;
49876;SDS011;35771;48.978;9.294;2022-09-03T03:50:16;0.90;;;0.82;;
49876;SDS011;35771;48.978;9.294;2022-09-03T03:52:43;1.75;;;1.00;;
49876;SDS011;35771;48.978;9.294;2022-09-03T03:55:12;3.50;;;1.10;;
49876;SDS011;35771;48.978;9.294;2022-09-03T03:57:39;6.32;;;0.90;;
49876;SDS011;35771;48.978;9.294;2022-09-03T04:00:08;1.15;;;0.85;;
49876;SDS011;35771;48.978;9.294;2022-09-03T04:02:36;1.40;;;1.20;;
49876;SDS011;35771;48.978;9.294;2022-09-03T04:05:03;1.13;;;0.82;;
49876;SDS011;35771;48.978;9.294;2022-09-03T04:07:30;7.65;;;1.10;;
49876;SDS011;35771;48.978;9.294;2022-09-03T04:09:56;2.47;;;0.90;;
49876;SDS011;35771;48.978;9.294;2022-09-03T04:12:24;1.65;;;1.00;;
49876;SDS011;35771;48.978;9.294;2022-09-03T04:14:52;1.83;;;0.90;;
49876;SDS011;35771;48.978;9.294;2022-09-03T04:17:18;3.65;;;1.20;;
49876;SDS011;35771;48.978;9.294;2022-09-03T04:19:45;2.17;;;0.80;;
49876;SDS011;35771;48.978;9.294;2022-09-03T04:22:12;2.10;;;1.20;;
49876;SDS011;35771;48.978;9.294;2022-09-03T04:24:39;1.83;;;1.10;;
49876;SDS011;35771;48.978;9.294;2022-09-03T04:27:06;2.30;;;0.77;;
49876;SDS011;35771;48.978;9.294;2022-09-03T04:29:34;2.85;;;1.10;;
49876;SDS011;35771;48.978;9.294;2022-09-03T04:32:03;6.20;;;0.90;;
49876;SDS011;35771;48.978;9.294;2022-09-03T04:34:47;1.23;;;1.00;;
49876;SDS011;35771;48.978;9.294;2022-09-03T04:37:14;2.03;;;0.73;;
49876;SDS011;35771;48.978;9.294;2022-09-03T04:39:43;1.70;;;1.10;;
49876;SDS011;35771;48.978;9.294;2022-09-03T04:42:10;3.72;;;1.20;;
49876;SDS011;35771;48.978;9.294;2022-09-03T04:44:38;1.33;;;0.95;;
49876;SDS011;35771;48.978;9.294;2022-09-03T04:47:05;2.35;;;1.42;;
49876;SDS011;35771;48.978;9.294;2022-09-03T04:49:34;2.08;;;1.35;;
49876;SDS011;35771;48.978;9.294;2022-09-03T04:52:01;2.10;;;1.00;;
49876;SDS011;35771;48.978;9.294;2022-09-03T04:54:27;1.58;;;1.00;;
49876;SDS011;35771;48.978;9.294;2022-09-03T04:56:54;3.67;;;1.20;;
49876;SDS011;35771;48.978;9.294;2022-09-03T04:59:21;1.20;;;1.10;;
49876;SDS011;35771;48.978;9.294;2022-09-03T05:01:49;3.40;;;0.90;;
49876;SDS011;35771;48.978;9.294;2022-09-03T05:04:20;1.25;;;0.90;;
49876;SDS011;35771;48.978;9.294;2022-09-03T05:06:47;1.25;;;1.00;;
49876;SDS011;35771;48.978;9.294;2022-09-03T05:09:14;1.10;;;0.85;;
49876;SDS011;35771;48.978;9.294;2022-09-03T05:11:40;1.02;;;0.93;;
49876;SDS011;35771;48.978;9.294;2022-09-03T05:14:07;1.35;;;1.08;;
49876;SDS011;35771;48.978;9.294;2022-09-03T05:16:35;4.40;;;0.90;;
49876;SDS011;35771;48.978;9.294;2022-09-03T05:19:03;4.88;;;1.00;;
49876;SDS011;35771;48.978;9.294;2022-09-03T05:21:32;1.25;;;1.10;;
49876;SDS011;35771;48.978;9.294;2022-09-03T05:24:01;3.92;;;1.98;;
49876;SDS011;35771;48.978;9.294;2022-09-03T05:26:28;5.20;;;2.35;;
49876;SDS011;35771;48.978;9.294;2022-09-03T05:28:57;3.20;;;1.80;;
49876;SDS011;35771;48.978;9.294;2022-09-03T05:31:26;2.05;;;1.25;;
49876;SDS011;35771;48.978;9.294;2022-09-03T05:33:55;1.08;;;0.90;;
49876;SDS011;35771;48.978;9.294;2022-09-03T05:36:26;2.63;;;1.17;;
49876;SDS011;35771;48.978;9.294;2022-09-03T05:38:54;1.00;;;0.80;;
49876;SDS011;35771;48.978;9.294;2022-09-03T05:41:21;0.85;;;0.70;;
49876;SDS011;35771;48.978;9.294;2022-09-03T05:43:48;7.35;;;1.15;;
49876;SDS011;35771;48.978;9.294;2022-09-03T05:46:20;1.42;;;1.10;;
49876;SDS011;35771;48.978;9.294;2022-09-03T05:48:50;3.33;;;1.00;;
49876;SDS011;35771;48.978;9.294;2022-09-03T05:51:17;3.35;;;1.02;;
49876;SDS011;35771;48.978;9.294;2022-09-03T05:53:46;5.80;;;1.20;;
49876;SDS011;35771;48.978;9.294;2022-09-03T05:56:14;1.73;;;1.00;;
49876;SDS011;35771;48.978;9.294;2022-09-03T05:58:43;2.13;;;1.07;;
49876;SDS011;35771;48.978;9.294;2022-09-03T06:01:12;6.65;;;1.80;;
49876;SDS011;35771;48.978;9.294;2022-09-03T06:03:40;2.67;;;1.15;;
49876;SDS011;35771;48.978;9.294;2022-09-03T06:06:07;1.90;;;1.10;;
49876;SDS011;35771;48.978;9.294;2022-09-03T06:08:35;4.57;;;1.10;;
49876;SDS011;35771;48.978;9.294;2022-09-03T06:11:04;3.08;;;1.40;;
49876;SDS011;35771;48.978;9.294;2022-09-03T06:13:31;3.30;;;1.02;;
49876;SDS011;35771;48.978;9.294;2022-09-03T06:16:00;8.85;;;2.55;;
49876;SDS011;35771;48.978;9.294;2022-09-03T06:18:28;2.67;;;1.23;;
49876;SDS011;35771;48.978;9.294;2022-09-03T06:20:56;3.85;;;1.13;;
49876;SDS011;35771;48.978;9.294;2022-09-03T06:23:23;3.95;;;1.65;;
49876;SDS011;35771;48.978;9.294;2022-09-03T06:25:58;2.95;;;1.45;;
49876;SDS011;35771;48.978;9.294;2022-09-03T06:28:27;3.65;;;1.15;;
49876;SDS011;35771;48.978;9.294;2022-09-03T06:30:56;2.03;;;1.20;;
49876;SDS011;35771;48.978;9.294;2022-09-03T06:33:23;3.25;;;1.13;;
49876;SDS011;35771;48.978;9.294;2022-09-03T06:35:52;2.03;;;0.90;;
49876;SDS011;35771;48.978;9.294;2022-09-03T06:38:22;3.88;;;1.00;;
49876;SDS011;35771;48.978;9.294;2022-09-03T06:40:50;2.05;;;1.13;;
49876;SDS011;35771;48.978;9.294;2022-09-03T06:43:17;2.05;;;1.13;;
49876;SDS011;35771;48.978;9.294;2022-09-03T06:45:52;3.40;;;1.25;;
49876;SDS011;35771;48.978;9.294;2022-09-03T06:48:20;1.10;;;0.90;;
49876;SDS011;35771;48.978;9.294;2022-09-03T06:50:53;3.58;;;1.02;;
49876;SDS011;35771;48.978;9.294;2022-09-03T06:53:24;5.55;;;1.10;;
49876;SDS011;35771;48.978;9.294;2022-09-03T06:55:53;3.13;;;1.05;;
49876;SDS011;35771;48.978;9.294;2022-09-03T06:58:20;2.00;;;1.20;;
49876;SDS011;35771;48.978;9.294;2022-09-03T07:00:48;1.40;;;1.05;;
49876;SDS011;35771;48.978;9.294;2022-09-03T07:03:17;2.58;;;1.10;;
49876;SDS011;35771;48.978;9.294;2022-09-03T07:05:44;3.20;;;0.98;;
49876;SDS011;35771;48.978;9.294;2022-09-03T07:08:11;3.45;;;1.20;;
49876;SDS011;35771;48.978;9.294;2022-09-03T07:10:38;1.88;;;1.00;;
49876;SDS011;35771;48.978;9.294;2022-09-03T07:13:05;1.50;;;1.23;;
49876;SDS011;35771;48.978;9.294;2022-09-03T07:15:31;3.47;;;1.38;;
49876;SDS011;35771;48.978;9.294;2022-09-03T07:17:58;2.13;;;1.17;;
49876;SDS011;35771;48.978;9.294;2022-09-03T07:20:29;1.80;;;1.08;;
49876;SDS011;35771;48.978;9.294;2022-09-03T07:22:57;3.50;;;1.52;;
49876;SDS011;35771;48.978;9.294;2022-09-03T07:25:24;1.45;;;1.00;;
49876;SDS011;35771;48.978;9.294;2022-09-03T07:27:51;2.03;;;1.33;;
49876;SDS011;35771;48.978;9.294;2022-09-03T07:30:18;5.45;;;1.40;;
49876;SDS011;35771;48.978;9.294;2022-09-03T07:32:45;2.88;;;1.13;;
49876;SDS011;35771;48.978;9.294;2022-09-03T07:35:12;3.70;;;1.10;;
49876;SDS011;35771;48.978;9.294;2022-09-03T07:37:41;5.90;;;1.10;;
49876;SDS011;35771;48.978;9.294;2022-09-03T07:40:08;2.22;;;1.30;;
49876;SDS011;35771;48.978;9.294;2022-09-03T07:42:35;3.22;;;1.38;;
49876;SDS011;35771;48.978;9.294;2022-09-03T07:45:04;3.13;;;1.40;;
49876;SDS011;35771;48.978;9.294;2022-09-03T07:50:00;2.38;;;1.40;;
49876;SDS011;35771;48.978;9.294;2022-09-03T07:52:27;4.07;;;1.30;;
49876;SDS011;35771;48.978;9.294;2022-09-03T07:54:55;9.55;;;1.60;;
49876;SDS011;35771;48.978;9.294;2022-09-03T07:57:23;5.60;;;1.50;;
49876;SDS011;35771;48.978;9.294;2022-09-03T07:59:50;7.03;;;1.50;;
49876;SDS011;35771;48.978;9.294;2022-09-03T08:02:16;4.10;;;1.50;;
49876;SDS011;35771;48.978;9.294;2022-09-03T08:04:43;3.50;;;1.55;;
49876;SDS011;35771;48.978;9.294;2022-09-03T08:07:10;3.38;;;1.48;;
49876;SDS011;35771;48.978;9.294;2022-09-03T08:09:36;3.88;;;1.58;;
49876;SDS011;35771;48.978;9.294;2022-09-03T08:12:04;5.68;;;1.35;;
49876;SDS011;35771;48.978;9.294;2022-09-03T08:14:31;1.83;;;1.27;;
49876;SDS011;35771;48.978;9.294;2022-09-03T08:16:58;7.05;;;1.92;;
49876;SDS011;35771;48.978;9.294;2022-09-03T08:19:25;3.40;;;1.65;;
49876;SDS011;35771;48.978;9.294;2022-09-03T08:21:51;6.72;;;1.67;;
49876;SDS011;35771;48.978;9.294;2022-09-03T08:24:18;4.72;;;1.63;;
49876;SDS011;35771;48.978;9.294;2022-09-03T08:26:45;1.65;;;1.42;;
49876;SDS011;35771;48.978;9.294;2022-09-03T08:29:14;4.43;;;1.50;;
49876;SDS011;35771;48.978;9.294;2022-09-03T08:31:40;3.00;;;1.42;;
49876;SDS011;35771;48.978;9.294;2022-09-03T08:34:08;4.75;;;2.00;;
49876;SDS011;35771;48.978;9.294;2022-09-03T08:36:36;1.92;;;1.48;;
49876;SDS011;35771;48.978;9.294;2022-09-03T08:39:06;2.55;;;1.95;;
49876;SDS011;35771;48.978;9.294;2022-09-03T08:41:37;2.15;;;1.80;;
49876;SDS011;35771;48.978;9.294;2022-09-03T08:44:18;3.60;;;1.60;;
49876;SDS011;35771;48.978;9.294;2022-09-03T08:46:50;2.08;;;1.60;;
49876;SDS011;35771;48.978;9.294;2022-09-03T08:49:24;8.57;;;1.40;;
49876;SDS011;35771;48.978;9.294;2022-09-03T08:51:53;9.05;;;2.28;;
49876;SDS011;35771;48.978;9.294;2022-09-03T08:54:23;8.25;;;2.20;;
49876;SDS011;35771;48.978;9.294;2022-09-03T08:56:54;4.75;;;1.88;;
49876;SDS011;35771;48.978;9.294;2022-09-03T08:59:27;4.25;;;2.00;;
49876;SDS011;35771;48.978;9.294;2022-09-03T09:01:56;4.57;;;1.50;;
49876;SDS011;35771;48.978;9.294;2022-09-03T09:04:34;5.00;;;1.67;;
49876;SDS011;35771;48.978;9.294;2022-09-03T09:07:10;4.82;;;1.80;;
49876;SDS011;35771;48.978;9.294;2022-09-03T09:09:44;3.90;;;1.50;;
49876;SDS011;35771;48.978;9.294;2022-09-03T09:12:16;5.75;;;2.10;;
49876;SDS011;35771;48.978;9.294;2022-09-03T09:14:57;1.85;;;1.40;;
49876;SDS011;35771;48.978;9.294;2022-09-03T09:17:36;3.40;;;2.15;;
49876;SDS011;35771;48.978;9.294;2022-09-03T09:20:17;7.28;;;1.73;;
49876;SDS011;35771;48.978;9.294;2022-09-03T09:22:53;1.63;;;1.42;;
49876;SDS011;35771;48.978;9.294;2022-09-03T09:25:23;3.53;;;1.88;;
49876;SDS011;35771;48.978;9.294;2022-09-03T09:27:52;3.30;;;2.35;;
49876;SDS011;35771;48.978;9.294;2022-09-03T09:30:25;4.82;;;2.15;;
49876;SDS011;35771;48.978;9.294;2022-09-03T09:32:53;4.57;;;1.80;;
49876;SDS011;35771;48.978;9.294;2022-09-03T09:35:20;4.03;;;1.70;;
49876;SDS011;35771;48.978;9.294;2022-09-03T09:37:50;4.30;;;2.05;;
49876;SDS011;35771;48.978;9.294;2022-09-03T09:40:26;4.07;;;1.70;;
49876;SDS011;35771;48.978;9.294;2022-09-03T09:43:07;2.28;;;1.80;;
49876;SDS011;35771;48.978;9.294;2022-09-03T09:45:37;2.30;;;1.60;;
49876;SDS011;35771;48.978;9.294;2022-09-03T09:48:07;4.82;;;2.08;;
49876;SDS011;35771;48.978;9.294;2022-09-03T09:50:42;8.93;;;2.38;;
49876;SDS011;35771;48.978;9.294;2022-09-03T09:53:10;2.72;;;1.70;;
49876;SDS011;35771;48.978;9.294;2022-09-03T09:55:53;2.15;;;1.50;;
49876;SDS011;35771;48.978;9.294;2022-09-03T09:58:22;5.50;;;3.03;;
49876;SDS011;35771;48.978;9.294;2022-09-03T10:00:57;3.28;;;1.80;;
49876;SDS011;35771;48.978;9.294;2022-09-03T10:03:29;3.20;;;1.48;;
49876;SDS011;35771;48.978;9.294;2022-09-03T10:06:03;3.53;;;1.75;;
49876;SDS011;35771;48.978;9.294;2022-09-03T10:08:50;5.10;;;1.65;;
49876;SDS011;35771;48.978;9.294;2022-09-03T10:11:17;2.60;;;1.90;;
49876;SDS011;35771;48.978;9.294;2022-09-03T10:13:49;5.20;;;1.83;;
49876;SDS011;35771;48.978;9.294;2022-09-03T10:16:24;3.67;;;1.90;;
49876;SDS011;35771;48.978;9.294;2022-09-03T10:19:00;2.40;;;1.60;;
49876;SDS011;35771;48.978;9.294;2022-09-03T10:21:34;4.88;;;1.73;;
49876;SDS011;35771;48.978;9.294;2022-09-03T10:24:13;4.78;;;1.90;;
49876;SDS011;35771;48.978;9.294;2022-09-03T10:26:50;4.18;;;1.98;;
49876;SDS011;35771;48.978;9.294;2022-09-03T10:29:18;2.15;;;1.52;;
49876;SDS011;35771;48.978;9.294;2022-09-03T10:31:54;3.70;;;1.80;;
49876;SDS011;35771;48.978;9.294;2022-09-03T10:34:33;2.55;;;1.75;;
49876;SDS011;35771;48.978;9.294;2022-09-03T10:37:10;2.30;;;1.58;;
49876;SDS011;35771;48.978;9.294;2022-09-03T10:42:40;2.20;;;1.70;;
49876;SDS011;35771;48.978;9.294;2022-09-03T10:45:15;2.85;;;2.08;;
49876;SDS011;35771;48.978;9.294;2022-09-03T10:50:45;2.63;;;1.95;;
49876;SDS011;35771;48.978;9.294;2022-09-03T10:53:18;6.60;;;1.73;;
49876;SDS011;35771;48.978;9.294;2022-09-03T10:55:56;2.83;;;1.65;;
49876;SDS011;35771;48.978;9.294;2022-09-03T10:58:38;1.92;;;1.73;;
49876;SDS011;35771;48.978;9.294;2022-09-03T11:01:16;4.80;;;1.80;;
49876;SDS011;35771;48.978;9.294;2022-09-03T11:03:54;2.03;;;1.70;;
49876;SDS011;35771;48.978;9.294;2022-09-03T11:06:34;6.32;;;1.67;;
49876;SDS011;35771;48.978;9.294;2022-09-03T11:09:11;2.15;;;1.60;;
49876;SDS011;35771;48.978;9.294;2022-09-03T11:11:44;4.13;;;1.50;;
49876;SDS011;35771;48.978;9.294;2022-09-03T11:14:27;1.83;;;1.58;;
49876;SDS011;35771;48.978;9.294;2022-09-03T11:17:00;2.22;;;1.70;;
49876;SDS011;35771;48.978;9.294;2022-09-03T11:19:35;8.32;;;2.20;;
49876;SDS011;35771;48.978;9.294;2022-09-03T11:22:12;2.60;;;1.70;;
49876;SDS011;35771;48.978;9.294;2022-09-03T11:24:41;3.90;;;1.63;;
49876;SDS011;35771;48.978;9.294;2022-09-03T11:27:16;2.35;;;1.40;;
49876;SDS011;35771;48.978;9.294;2022-09-03T11:29:54;4.10;;;1.58;;
49876;SDS011;35771;48.978;9.294;2022-09-03T11:32:28;3.30;;;1.50;;
49876;SDS011;35771;48.978;9.294;2022-09-03T11:35:11;2.88;;;1.50;;
49876;SDS011;35771;48.978;9.294;2022-09-03T11:37:44;1.90;;;1.65;;
49876;SDS011;35771;48.978;9.294;2022-09-03T11:40:18;2.15;;;1.60;;
49876;SDS011;35771;48.978;9.294;2022-09-03T11:42:46;2.95;;;1.60;;
49876;SDS011;35771;48.978;9.294;2022-09-03T11:45:19;1.90;;;1.48;;
49876;SDS011;35771;48.978;9.294;2022-09-03T11:47:49;6.88;;;1.60;;
49876;SDS011;35771;48.978;9.294;2022-09-03T11:50:19;5.25;;;1.60;;
49876;SDS011;35771;48.978;9.294;2022-09-03T11:52:48;2.17;;;1.70;;
49876;SDS011;35771;48.978;9.294;2022-09-03T11:55:24;3.05;;;1.70;;
49876;SDS011;35771;48.978;9.294;2022-09-03T11:57:58;2.08;;;1.45;;
49876;SDS011;35771;48.978;9.294;2022-09-03T12:00:36;2.42;;;1.38;;
49876;SDS011;35771;48.978;9.294;2022-09-03T12:03:11;2.45;;;1.60;;
49876;SDS011;35771;48.978;9.294;2022-09-03T12:05:46;2.33;;;1.42;;
49876;SDS011;35771;48.978;9.294;2022-09-03T12:08:39;4.18;;;1.73;;
49876;SDS011;35771;48.978;9.294;2022-09-03T12:11:21;2.25;;;1.50;;
49876;SDS011;35771;48.978;9.294;2022-09-03T12:14:01;3.03;;;1.60;;
49876;SDS011;35771;48.978;9.294;2022-09-03T12:16:48;2.00;;;1.80;;
49876;SDS011;35771;48.978;9.294;2022-09-03T12:19:24;3.92;;;1.77;;
49876;SDS011;35771;48.978;9.294;2022-09-03T12:22:01;1.98;;;1.58;;
49876;SDS011;35771;48.978;9.294;2022-09-03T12:24:29;2.45;;;1.80;;
49876;SDS011;35771;48.978;9.294;2022-09-03T12:27:01;8.50;;;2.75;;
49876;SDS011;35771;48.978;9.294;2022-09-03T12:29:29;2.63;;;1.40;;
49876;SDS011;35771;48.978;9.294;2022-09-03T12:32:04;2.47;;;1.55;;
49876;SDS011;35771;48.978;9.294;2022-09-03T12:34:32;2.55;;;1.60;;
49876;SDS011;35771;48.978;9.294;2022-09-03T12:36:59;1.92;;;1.55;;
49876;SDS011;35771;48.978;9.294;2022-09-03T12:39:29;3.63;;;1.38;;
49876;SDS011;35771;48.978;9.294;2022-09-03T12:41:59;3.85;;;1.65;;
49876;SDS011;35771;48.978;9.294;2022-09-03T12:44:28;3.65;;;1.60;;
49876;SDS011;35771;48.978;9.294;2022-09-03T12:47:00;1.67;;;1.50;;
49876;SDS011;35771;48.978;9.294;2022-09-03T12:49:35;2.88;;;1.60;;
49876;SDS011;35771;48.978;9.294;2022-09-03T12:52:06;3.17;;;1.60;;
49876;SDS011;35771;48.978;9.294;2022-09-03T12:54:41;7.60;;;1.50;;
49876;SDS011;35771;48.978;9.294;2022-09-03T12:57:14;2.30;;;1.70;;
49876;SDS011;35771;48.978;9.294;2022-09-03T12:59:45;3.25;;;1.70;;
49876;SDS011;35771;48.978;9.294;2022-09-03T13:02:15;3.95;;;1.67;;
49876;SDS011;35771;48.978;9.294;2022-09-03T13:04:46;2.40;;;1.77;;
49876;SDS011;35771;48.978;9.294;2022-09-03T13:07:20;2.85;;;2.03;;
49876;SDS011;35771;48.978;9.294;2022-09-03T13:09:51;6.18;;;1.80;;
49876;SDS011;35771;48.978;9.294;2022-09-03T13:12:28;2.30;;;1.77;;
49876;SDS011;35771;48.978;9.294;2022-09-03T13:15:03;3.63;;;2.13;;
49876;SDS011;35771;48.978;9.294;2022-09-03T13:20:34;4.07;;;1.70;;
49876;SDS011;35771;48.978;9.294;2022-09-03T13:23:34;5.63;;;2.08;;
49876;SDS011;35771;48.978;9.294;2022-09-03T13:26:17;8.13;;;2.00;;
49876;SDS011;35771;48.978;9.294;2022-09-03T13:29:00;2.13;;;1.80;;
49876;SDS011;35771;48.978;9.294;2022-09-03T13:31:45;5.10;;;1.75;;
49876;SDS011;35771;48.978;9.294;2022-09-03T13:34:17;8.80;;;1.88;;
49876;SDS011;35771;48.978;9.294;2022-09-03T13:36:50;5.60;;;1.60;;
49876;SDS011;35771;48.978;9.294;2022-09-03T13:39:25;6.00;;;1.80;;
49876;SDS011;35771;48.978;9.294;2022-09-03T13:41:57;7.82;;;2.03;;
49876;SDS011;35771;48.978;9.294;2022-09-03T13:44:34;6.43;;;2.00;;
49876;SDS011;35771;48.978;9.294;2022-09-03T13:47:07;2.15;;;1.75;;
49876;SDS011;35771;48.978;9.294;2022-09-03T13:49:39;3.58;;;1.63;;
49876;SDS011;35771;48.978;9.294;2022-09-03T13:52:30;5.38;;;2.15;;
49876;SDS011;35771;48.978;9.294;2022-09-03T13:55:10;4.03;;;1.80;;
49876;SDS011;35771;48.978;9.294;2022-09-03T13:57:45;5.85;;;2.15;;
49876;SDS011;35771;48.978;9.294;2022-09-03T14:00:22;5.35;;;2.17;;
49876;SDS011;35771;48.978;9.294;2022-09-03T14:02:53;2.65;;;2.42;;
49876;SDS011;35771;48.978;9.294;2022-09-03T14:05:30;7.03;;;2.67;;
49876;SDS011;35771;48.978;9.294;2022-09-03T14:08:08;2.38;;;2.00;;
49876;SDS011;35771;48.978;9.294;2022-09-03T14:10:49;4.30;;;2.00;;
49876;SDS011;35771;48.978;9.294;2022-09-03T14:13:23;2.50;;;2.10;;
49876;SDS011;35771;48.978;9.294;2022-09-03T14:15:59;4.63;;;2.08;;
49876;SDS011;35771;48.978;9.294;2022-09-03T14:18:38;2.75;;;1.88;;
49876;SDS011;35771;48.978;9.294;2022-09-03T14:21:12;4.38;;;1.90;;
49876;SDS011;35771;48.978;9.294;2022-09-03T14:23:44;3.40;;;1.90;;
49876;SDS011;35771;48.978;9.294;2022-09-03T14:26:20;2.60;;;2.15;;
49876;SDS011;35771;48.978;9.294;2022-09-03T14:34:53;4.53;;;2.08;;
49876;SDS011;35771;48.978;9.294;2022-09-03T14:37:38;7.20;;;1.98;;
49876;SDS011;35771;48.978;9.294;2022-09-03T14:40:15;4.22;;;1.52;;
49876;SDS011;35771;48.978;9.294;2022-09-03T14:42:50;3.63;;;1.92;;
49876;SDS011;35771;48.978;9.294;2022-09-03T14:48:42;3.65;;;1.60;;
49876;SDS011;35771;48.978;9.294;2022-09-03T14:51:29;3.80;;;1.58;;
49876;SDS011;35771;48.978;9.294;2022-09-03T14:54:16;4.78;;;1.38;;
49876;SDS011;35771;48.978;9.294;2022-09-03T14:57:03;2.42;;;1.50;;
49876;SDS011;35771;48.978;9.294;2022-09-03T14:59:52;2.38;;;1.65;;
49876;SDS011;35771;48.978;9.294;2022-09-03T15:02:37;5.18;;;1.90;;
49876;SDS011;35771;48.978;9.294;2022-09-03T15:05:26;2.28;;;1.50;;
49876;SDS011;35771;48.978;9.294;2022-09-03T15:08:08;5.35;;;1.95;;
49876;SDS011;35771;48.978;9.294;2022-09-03T15:10:43;3.25;;;2.10;;
49876;SDS011;35771;48.978;9.294;2022-09-03T15:13:14;4.93;;;2.90;;
49876;SDS011;35771;48.978;9.294;2022-09-03T15:15:49;2.95;;;1.60;;
49876;SDS011;35771;48.978;9.294;2022-09-03T15:18:29;1.83;;;1.35;;
49876;SDS011;35771;48.978;9.294;2022-09-03T15:21:06;2.40;;;1.40;;
49876;SDS011;35771;48.978;9.294;2022-09-03T15:23:50;2.33;;;1.42;;
49876;SDS011;35771;48.978;9.294;2022-09-03T15:29:34;4.22;;;1.63;;
49876;SDS011;35771;48.978;9.294;2022-09-03T15:32:14;7.70;;;2.22;;
49876;SDS011;35771;48.978;9.294;2022-09-03T15:34:58;2.30;;;1.25;;
49876;SDS011;35771;48.978;9.294;2022-09-03T15:37:32;6.18;;;1.38;;
49876;SDS011;35771;48.978;9.294;2022-09-03T15:40:04;5.93;;;1.63;;
49876;SDS011;35771;48.978;9.294;2022-09-03T15:42:35;4.65;;;1.55;;